FAOR/JNB METAR and TAF weather

Enter ICAO airport designator
Station Type Date Time Source
FAOR METAR 2018/10/19 15:30 UTC NOAA

FAOR 191530Z 22005KT 180V280 CAVOK 26/02 Q1021 NOSIG


Station Type Date Time Source
FAOR Decoded METAR 2018/10/19 15:30 UTC NOAA

Station name not available
Oct 19, 2018 - 11:30 AM EDT / 2018.10.19 1530 UTC
Wind: from the SW (220 degrees) at 6 MPH (5 KT) (direction variable):0
Visibility: greater than 7 mile(s):0
Temperature: 78 F (26 C)
Dew Point: 35 F (2 C)
Relative Humidity: 20%
Pressure (altimeter): 30.15 in. Hg (1021 hPa)
ob: FAOR 191530Z 22005KT 180V280 CAVOK 26/02 Q1021 NOSIG
cycle: 15

Station Type Date Time Source
FAOR TAF 2018/10/19 12:31 UTC NOAA

TAF
AMD FAOR 191430Z 1912/2018 VRB03KT CAVOK
BECMG 1917/1919 33008KT
BECMG 2008/2010 SCT040 FEW040TCU PROB40
TEMPO 2010/2018 -TSRA FEW040CB
BECMG 2013/2015 14015KT PROB30
TEMPO 2015/2018 4000 TSRA FEW035CB TX27/1913Z TN12/2003Z


Example: see airport list